sensor_id;sensor_type;location;lat;lon;timestamp;temperature;humidity
814;DHT22;389;48.710;9.392;2023-12-28T00:01:50;2.00;99.90
814;DHT22;389;48.710;9.392;2023-12-28T00:04:16;2.00;99.90
814;DHT22;389;48.710;9.392;2023-12-28T00:06:42;2.10;99.90
814;DHT22;389;48.710;9.392;2023-12-28T00:09:08;2.10;99.90
814;DHT22;389;48.710;9.392;2023-12-28T00:11:35;2.00;99.90
814;DHT22;389;48.710;9.392;2023-12-28T00:14:00;2.00;99.90
814;DHT22;389;48.710;9.392;2023-12-28T00:16:27;2.00;99.90
814;DHT22;389;48.710;9.392;2023-12-28T00:18:52;2.00;99.90
814;DHT22;389;48.710;9.392;2023-12-28T00:21:18;2.00;99.90
814;DHT22;389;48.710;9.392;2023-12-28T00:23:43;2.00;99.90
814;DHT22;389;48.710;9.392;2023-12-28T00:26:09;2.00;99.90
814;DHT22;389;48.710;9.392;2023-12-28T00:28:34;2.00;99.90
814;DHT22;389;48.710;9.392;2023-12-28T00:31:00;2.00;99.90
814;DHT22;389;48.710;9.392;2023-12-28T00:33:25;1.90;99.90
814;DHT22;389;48.710;9.392;2023-12-28T00:35:51;1.90;99.90
814;DHT22;389;48.710;9.392;2023-12-28T00:38:16;1.80;99.90
814;DHT22;389;48.710;9.392;2023-12-28T00:40:42;1.80;99.90
814;DHT22;389;48.710;9.392;2023-12-28T00:43:07;1.80;99.90
814;DHT22;389;48.710;9.392;2023-12-28T00:45:33;1.80;99.90
814;DHT22;389;48.710;9.392;2023-12-28T00:47:58;1.80;99.90
814;DHT22;389;48.710;9.392;2023-12-28T00:50:24;1.90;99.90
814;DHT22;389;48.710;9.392;2023-12-28T00:52:52;1.90;99.90
814;DHT22;389;48.710;9.392;2023-12-28T00:55:18;1.80;99.90
814;DHT22;389;48.710;9.392;2023-12-28T00:57:43;1.80;99.90
814;DHT22;389;48.710;9.392;2023-12-28T01:00:09;1.80;99.90
814;DHT22;389;48.710;9.392;2023-12-28T01:02:35;1.90;99.90
814;DHT22;389;48.710;9.392;2023-12-28T01:05:00;1.90;99.90
814;DHT22;389;48.710;9.392;2023-12-28T01:07:26;1.80;99.90
814;DHT22;389;48.710;9.392;2023-12-28T01:09:51;1.80;99.90
814;DHT22;389;48.710;9.392;2023-12-28T01:12:17;1.80;99.90
814;DHT22;389;48.710;9.392;2023-12-28T01:14:42;1.80;99.90
814;DHT22;389;48.710;9.392;2023-12-28T01:17:08;1.80;99.90
814;DHT22;389;48.710;9.392;2023-12-28T01:19:34;2.00;99.90
814;DHT22;389;48.710;9.392;2023-12-28T01:21:59;1.80;99.90
814;DHT22;389;48.710;9.392;2023-12-28T01:24:25;1.80;99.90
814;DHT22;389;48.710;9.392;2023-12-28T01:26:52;1.80;99.90
814;DHT22;389;48.710;9.392;2023-12-28T01:29:17;1.70;99.90
814;DHT22;389;48.710;9.392;2023-12-28T01:31:43;1.80;99.90
814;DHT22;389;48.710;9.392;2023-12-28T01:34:09;1.70;99.90
814;DHT22;389;48.710;9.392;2023-12-28T01:36:34;1.70;99.90
814;DHT22;389;48.710;9.392;2023-12-28T01:39:00;1.80;99.90
814;DHT22;389;48.710;9.392;2023-12-28T01:41:26;1.80;99.90
814;DHT22;389;48.710;9.392;2023-12-28T01:43:51;1.80;99.90
814;DHT22;389;48.710;9.392;2023-12-28T01:46:19;1.80;99.90
814;DHT22;389;48.710;9.392;2023-12-28T01:48:49;1.80;99.90
814;DHT22;389;48.710;9.392;2023-12-28T01:51:15;1.80;99.90
814;DHT22;389;48.710;9.392;2023-12-28T01:53:42;1.80;99.90
814;DHT22;389;48.710;9.392;2023-12-28T01:56:08;1.90;99.90
814;DHT22;389;48.710;9.392;2023-12-28T01:58:40;1.80;99.90
814;DHT22;389;48.710;9.392;2023-12-28T02:01:07;1.80;99.90
814;DHT22;389;48.710;9.392;2023-12-28T02:03:33;1.80;99.90
814;DHT22;389;48.710;9.392;2023-12-28T02:06:00;1.80;99.90
814;DHT22;389;48.710;9.392;2023-12-28T02:08:26;1.70;99.90
814;DHT22;389;48.710;9.392;2023-12-28T02:10:53;1.80;99.90
814;DHT22;389;48.710;9.392;2023-12-28T02:13:20;1.70;99.90
814;DHT22;389;48.710;9.392;2023-12-28T02:15:54;1.70;99.90
814;DHT22;389;48.710;9.392;2023-12-28T02:18:26;1.70;99.90
814;DHT22;389;48.710;9.392;2023-12-28T02:20:58;1.70;99.90
814;DHT22;389;48.710;9.392;2023-12-28T02:23:25;1.60;99.90
814;DHT22;389;48.710;9.392;2023-12-28T02:25:50;1.60;99.90
814;DHT22;389;48.710;9.392;2023-12-28T02:28:16;1.60;99.90
814;DHT22;389;48.710;9.392;2023-12-28T02:30:43;1.50;99.90
814;DHT22;389;48.710;9.392;2023-12-28T02:33:26;1.50;99.90
814;DHT22;389;48.710;9.392;2023-12-28T02:36:07;1.40;99.90
814;DHT22;389;48.710;9.392;2023-12-28T02:38:36;1.40;99.90
814;DHT22;389;48.710;9.392;2023-12-28T02:41:03;1.30;99.90
814;DHT22;389;48.710;9.392;2023-12-28T02:43:30;1.30;99.90
814;DHT22;389;48.710;9.392;2023-12-28T02:45:58;1.30;99.90
814;DHT22;389;48.710;9.392;2023-12-28T02:48:24;1.30;99.90
814;DHT22;389;48.710;9.392;2023-12-28T02:50:51;1.30;99.90
814;DHT22;389;48.710;9.392;2023-12-28T02:53:16;1.30;99.90
814;DHT22;389;48.710;9.392;2023-12-28T02:55:42;1.30;99.90
814;DHT22;389;48.710;9.392;2023-12-28T02:58:08;1.30;99.90
814;DHT22;389;48.710;9.392;2023-12-28T03:00:33;1.30;99.90
814;DHT22;389;48.710;9.392;2023-12-28T03:02:59;1.30;99.90
814;DHT22;389;48.710;9.392;2023-12-28T03:05:24;1.30;99.90
814;DHT22;389;48.710;9.392;2023-12-28T03:07:50;1.30;99.90
814;DHT22;389;48.710;9.392;2023-12-28T03:10:16;1.30;99.90
814;DHT22;389;48.710;9.392;2023-12-28T03:12:41;1.20;99.90
814;DHT22;389;48.710;9.392;2023-12-28T03:15:07;1.30;99.90
814;DHT22;389;48.710;9.392;2023-12-28T03:17:33;1.30;99.90
814;DHT22;389;48.710;9.392;2023-12-28T03:19:59;1.20;99.90
814;DHT22;389;48.710;9.392;2023-12-28T03:22:25;1.20;99.90
814;DHT22;389;48.710;9.392;2023-12-28T03:24:51;1.20;99.90
814;DHT22;389;48.710;9.392;2023-12-28T03:27:17;1.30;99.90
814;DHT22;389;48.710;9.392;2023-12-28T03:29:42;1.40;99.90
814;DHT22;389;48.710;9.392;2023-12-28T03:32:08;1.40;99.90
814;DHT22;389;48.710;9.392;2023-12-28T03:34:34;1.50;99.90
814;DHT22;389;48.710;9.392;2023-12-28T03:37:00;1.50;99.90
814;DHT22;389;48.710;9.392;2023-12-28T03:39:26;1.50;99.90
814;DHT22;389;48.710;9.392;2023-12-28T03:41:51;1.50;99.90
814;DHT22;389;48.710;9.392;2023-12-28T03:44:20;1.60;99.90
814;DHT22;389;48.710;9.392;2023-12-28T03:46:48;1.60;99.90
814;DHT22;389;48.710;9.392;2023-12-28T03:49:23;1.60;99.90
814;DHT22;389;48.710;9.392;2023-12-28T03:51:50;1.60;99.90
814;DHT22;389;48.710;9.392;2023-12-28T03:54:16;1.60;99.90
814;DHT22;389;48.710;9.392;2023-12-28T03:56:42;1.60;99.90
814;DHT22;389;48.710;9.392;2023-12-28T03:59:08;1.60;99.90
814;DHT22;389;48.710;9.392;2023-12-28T04:01:34;1.60;99.90
814;DHT22;389;48.710;9.392;2023-12-28T04:03:59;1.60;99.90
814;DHT22;389;48.710;9.392;2023-12-28T04:06:25;1.60;99.90
814;DHT22;389;48.710;9.392;2023-12-28T04:08:51;1.60;99.90
814;DHT22;389;48.710;9.392;2023-12-28T04:11:16;1.60;99.90
814;DHT22;389;48.710;9.392;2023-12-28T04:13:42;1.60;99.90
814;DHT22;389;48.710;9.392;2023-12-28T04:16:07;1.70;99.90
814;DHT22;389;48.710;9.392;2023-12-28T04:18:34;1.60;99.90
814;DHT22;389;48.710;9.392;2023-12-28T04:21:00;1.70;99.90
814;DHT22;389;48.710;9.392;2023-12-28T04:23:26;1.70;99.90
814;DHT22;389;48.710;9.392;2023-12-28T04:25:51;1.70;99.90
814;DHT22;389;48.710;9.392;2023-12-28T04:28:17;1.70;99.90
814;DHT22;389;48.710;9.392;2023-12-28T04:30:43;1.70;99.90
814;DHT22;389;48.710;9.392;2023-12-28T04:33:08;1.80;99.90
814;DHT22;389;48.710;9.392;2023-12-28T04:35:34;1.80;99.90
814;DHT22;389;48.710;9.392;2023-12-28T04:37:59;1.80;99.90
814;DHT22;389;48.710;9.392;2023-12-28T04:40:25;1.70;99.90
814;DHT22;389;48.710;9.392;2023-12-28T04:42:51;1.80;99.90
814;DHT22;389;48.710;9.392;2023-12-28T04:45:16;1.80;99.90
814;DHT22;389;48.710;9.392;2023-12-28T04:47:42;1.90;99.90
814;DHT22;389;48.710;9.392;2023-12-28T04:50:07;1.90;99.90
814;DHT22;389;48.710;9.392;2023-12-28T04:52:33;1.90;99.90
814;DHT22;389;48.710;9.392;2023-12-28T04:54:59;2.00;99.90
814;DHT22;389;48.710;9.392;2023-12-28T04:57:25;2.00;99.90
814;DHT22;389;48.710;9.392;2023-12-28T04:59:52;2.10;99.90
814;DHT22;389;48.710;9.392;2023-12-28T05:02:17;2.20;99.90
814;DHT22;389;48.710;9.392;2023-12-28T05:04:43;2.30;99.90
814;DHT22;389;48.710;9.392;2023-12-28T05:07:09;2.40;99.90
814;DHT22;389;48.710;9.392;2023-12-28T05:09:34;2.50;99.90
814;DHT22;389;48.710;9.392;2023-12-28T05:12:00;2.60;99.90
814;DHT22;389;48.710;9.392;2023-12-28T05:14:26;2.60;99.90
814;DHT22;389;48.710;9.392;2023-12-28T05:16:51;2.70;99.90
814;DHT22;389;48.710;9.392;2023-12-28T05:19:17;2.70;99.90
814;DHT22;389;48.710;9.392;2023-12-28T05:21:42;2.70;99.90
814;DHT22;389;48.710;9.392;2023-12-28T05:24:08;2.70;99.90
814;DHT22;389;48.710;9.392;2023-12-28T05:26:33;2.70;99.90
814;DHT22;389;48.710;9.392;2023-12-28T05:28:59;2.70;99.90
814;DHT22;389;48.710;9.392;2023-12-28T05:31:25;2.80;99.90
814;DHT22;389;48.710;9.392;2023-12-28T05:33:51;2.80;99.90
814;DHT22;389;48.710;9.392;2023-12-28T05:36:17;2.80;99.90
814;DHT22;389;48.710;9.392;2023-12-28T05:38:42;2.80;99.90
814;DHT22;389;48.710;9.392;2023-12-28T05:41:11;2.80;99.90
814;DHT22;389;48.710;9.392;2023-12-28T05:43:37;2.80;99.90
814;DHT22;389;48.710;9.392;2023-12-28T05:46:03;2.90;99.90
814;DHT22;389;48.710;9.392;2023-12-28T05:48:28;2.90;99.90
814;DHT22;389;48.710;9.392;2023-12-28T05:50:54;3.00;99.90
814;DHT22;389;48.710;9.392;2023-12-28T05:53:20;3.00;99.90
814;DHT22;389;48.710;9.392;2023-12-28T05:55:45;3.00;99.90
814;DHT22;389;48.710;9.392;2023-12-28T05:58:11;3.10;99.90
814;DHT22;389;48.710;9.392;2023-12-28T06:00:36;3.20;99.90
814;DHT22;389;48.710;9.392;2023-12-28T06:03:04;3.30;99.90
814;DHT22;389;48.710;9.392;2023-12-28T06:05:30;3.40;99.90
814;DHT22;389;48.710;9.392;2023-12-28T06:07:55;3.50;99.90
814;DHT22;389;48.710;9.392;2023-12-28T06:10:21;3.50;99.90
814;DHT22;389;48.710;9.392;2023-12-28T06:12:46;3.40;99.90
814;DHT22;389;48.710;9.392;2023-12-28T06:15:12;3.40;99.90
814;DHT22;389;48.710;9.392;2023-12-28T06:17:37;3.40;99.90
814;DHT22;389;48.710;9.392;2023-12-28T06:20:03;3.50;99.90
814;DHT22;389;48.710;9.392;2023-12-28T06:22:30;3.50;99.90
814;DHT22;389;48.710;9.392;2023-12-28T06:24:55;3.50;99.90
814;DHT22;389;48.710;9.392;2023-12-28T06:27:21;3.60;99.90
814;DHT22;389;48.710;9.392;2023-12-28T06:29:47;3.60;99.90
814;DHT22;389;48.710;9.392;2023-12-28T06:32:12;3.60;99.90
814;DHT22;389;48.710;9.392;2023-12-28T06:34:39;3.70;99.90
814;DHT22;389;48.710;9.392;2023-12-28T06:37:04;3.80;99.90
814;DHT22;389;48.710;9.392;2023-12-28T06:39:30;3.80;99.90
814;DHT22;389;48.710;9.392;2023-12-28T06:41:55;3.90;99.90
814;DHT22;389;48.710;9.392;2023-12-28T06:44:21;4.00;99.90
814;DHT22;389;48.710;9.392;2023-12-28T06:46:46;4.10;99.90
814;DHT22;389;48.710;9.392;2023-12-28T06:49:12;4.20;99.90
814;DHT22;389;48.710;9.392;2023-12-28T06:51:38;4.20;99.90
814;DHT22;389;48.710;9.392;2023-12-28T06:54:03;4.30;99.90
814;DHT22;389;48.710;9.392;2023-12-28T06:56:29;4.40;99.90
814;DHT22;389;48.710;9.392;2023-12-28T06:58:55;4.40;99.90
814;DHT22;389;48.710;9.392;2023-12-28T07:01:21;4.50;99.90
814;DHT22;389;48.710;9.392;2023-12-28T07:03:46;4.60;99.90
814;DHT22;389;48.710;9.392;2023-12-28T07:06:13;4.60;99.90
814;DHT22;389;48.710;9.392;2023-12-28T07:08:39;4.60;99.90
814;DHT22;389;48.710;9.392;2023-12-28T07:11:05;4.70;99.90
814;DHT22;389;48.710;9.392;2023-12-28T07:13:30;4.80;99.90
814;DHT22;389;48.710;9.392;2023-12-28T07:15:56;4.90;99.90
814;DHT22;389;48.710;9.392;2023-12-28T07:18:22;5.00;99.90
814;DHT22;389;48.710;9.392;2023-12-28T07:20:47;5.00;99.90
814;DHT22;389;48.710;9.392;2023-12-28T07:23:14;5.00;99.90
814;DHT22;389;48.710;9.392;2023-12-28T07:25:40;5.10;99.90
814;DHT22;389;48.710;9.392;2023-12-28T07:28:05;5.20;99.90
814;DHT22;389;48.710;9.392;2023-12-28T07:30:31;5.20;99.90
814;DHT22;389;48.710;9.392;2023-12-28T07:32:57;5.30;99.90
814;DHT22;389;48.710;9.392;2023-12-28T07:35:22;5.40;99.90
814;DHT22;389;48.710;9.392;2023-12-28T07:37:48;5.40;99.90
814;DHT22;389;48.710;9.392;2023-12-28T07:40:15;5.50;99.90
814;DHT22;389;48.710;9.392;2023-12-28T07:42:40;5.50;99.90
814;DHT22;389;48.710;9.392;2023-12-28T07:45:06;5.60;99.90
814;DHT22;389;48.710;9.392;2023-12-28T07:47:32;5.70;99.90
814;DHT22;389;48.710;9.392;2023-12-28T07:49:58;5.70;99.90
814;DHT22;389;48.710;9.392;2023-12-28T07:52:24;5.80;99.90
814;DHT22;389;48.710;9.392;2023-12-28T07:54:50;5.80;99.90
814;DHT22;389;48.710;9.392;2023-12-28T07:57:15;5.90;99.90
814;DHT22;389;48.710;9.392;2023-12-28T07:59:41;5.90;99.90
814;DHT22;389;48.710;9.392;2023-12-28T08:02:06;5.90;99.90
814;DHT22;389;48.710;9.392;2023-12-28T08:04:33;6.00;99.90
814;DHT22;389;48.710;9.392;2023-12-28T08:06:59;6.00;99.90
814;DHT22;389;48.710;9.392;2023-12-28T08:09:24;6.10;99.90
814;DHT22;389;48.710;9.392;2023-12-28T08:11:50;6.10;99.90
814;DHT22;389;48.710;9.392;2023-12-28T08:14:15;6.10;99.90
814;DHT22;389;48.710;9.392;2023-12-28T08:16:41;6.10;99.90
814;DHT22;389;48.710;9.392;2023-12-28T08:19:07;6.10;99.90
814;DHT22;389;48.710;9.392;2023-12-28T08:21:32;6.10;99.90
814;DHT22;389;48.710;9.392;2023-12-28T08:23:58;6.20;99.70
814;DHT22;389;48.710;9.392;2023-12-28T08:26:24;6.30;99.60
814;DHT22;389;48.710;9.392;2023-12-28T08:28:49;6.30;99.50
814;DHT22;389;48.710;9.392;2023-12-28T08:31:15;6.30;99.40
814;DHT22;389;48.710;9.392;2023-12-28T08:33:40;6.40;99.10
814;DHT22;389;48.710;9.392;2023-12-28T08:36:07;6.40;98.70
814;DHT22;389;48.710;9.392;2023-12-28T08:38:33;6.40;98.50
814;DHT22;389;48.710;9.392;2023-12-28T08:40:58;6.50;98.50
814;DHT22;389;48.710;9.392;2023-12-28T08:43:24;6.50;98.50
814;DHT22;389;48.710;9.392;2023-12-28T08:45:49;6.50;98.50
814;DHT22;389;48.710;9.392;2023-12-28T08:48:15;6.50;98.50
814;DHT22;389;48.710;9.392;2023-12-28T08:50:41;6.60;98.50
814;DHT22;389;48.710;9.392;2023-12-28T08:53:06;6.60;98.50
814;DHT22;389;48.710;9.392;2023-12-28T08:55:32;6.70;98.60
814;DHT22;389;48.710;9.392;2023-12-28T08:57:59;6.70;98.30
814;DHT22;389;48.710;9.392;2023-12-28T09:00:24;6.80;98.30
814;DHT22;389;48.710;9.392;2023-12-28T09:02:51;6.80;98.30
814;DHT22;389;48.710;9.392;2023-12-28T09:05:17;6.80;98.30
814;DHT22;389;48.710;9.392;2023-12-28T09:07:43;6.90;98.30
814;DHT22;389;48.710;9.392;2023-12-28T09:10:10;6.90;98.30
814;DHT22;389;48.710;9.392;2023-12-28T09:12:36;7.00;98.30
814;DHT22;389;48.710;9.392;2023-12-28T09:15:01;7.10;98.30
814;DHT22;389;48.710;9.392;2023-12-28T09:17:27;7.10;98.10
814;DHT22;389;48.710;9.392;2023-12-28T09:19:52;7.20;97.90
814;DHT22;389;48.710;9.392;2023-12-28T09:22:18;7.30;97.90
814;DHT22;389;48.710;9.392;2023-12-28T09:24:43;7.40;98.00
814;DHT22;389;48.710;9.392;2023-12-28T09:27:09;7.30;97.80
814;DHT22;389;48.710;9.392;2023-12-28T09:29:34;7.40;97.80
814;DHT22;389;48.710;9.392;2023-12-28T09:32:00;7.40;97.20
814;DHT22;389;48.710;9.392;2023-12-28T09:34:26;7.40;97.10
814;DHT22;389;48.710;9.392;2023-12-28T09:36:51;7.50;97.20
814;DHT22;389;48.710;9.392;2023-12-28T09:39:17;7.50;97.20
814;DHT22;389;48.710;9.392;2023-12-28T09:41:48;7.60;97.20
814;DHT22;389;48.710;9.392;2023-12-28T09:44:15;7.70;97.20
814;DHT22;389;48.710;9.392;2023-12-28T09:46:42;7.70;97.10
814;DHT22;389;48.710;9.392;2023-12-28T09:49:08;7.80;97.10
814;DHT22;389;48.710;9.392;2023-12-28T09:51:34;7.80;97.00
814;DHT22;389;48.710;9.392;2023-12-28T09:54:01;7.80;96.90
814;DHT22;389;48.710;9.392;2023-12-28T09:56:28;7.90;96.90
814;DHT22;389;48.710;9.392;2023-12-28T09:58:55;8.00;96.90
814;DHT22;389;48.710;9.392;2023-12-28T10:01:21;8.00;96.80
814;DHT22;389;48.710;9.392;2023-12-28T10:03:47;8.10;96.80
814;DHT22;389;48.710;9.392;2023-12-28T10:06:13;8.20;96.80
814;DHT22;389;48.710;9.392;2023-12-28T10:08:48;8.30;96.80
814;DHT22;389;48.710;9.392;2023-12-28T10:11:18;8.40;96.70
814;DHT22;389;48.710;9.392;2023-12-28T10:13:44;8.40;95.90
814;DHT22;389;48.710;9.392;2023-12-28T10:16:13;8.50;95.90
814;DHT22;389;48.710;9.392;2023-12-28T10:18:42;8.60;95.90
814;DHT22;389;48.710;9.392;2023-12-28T10:21:10;8.70;95.90
814;DHT22;389;48.710;9.392;2023-12-28T10:23:37;8.80;95.90
814;DHT22;389;48.710;9.392;2023-12-28T10:26:04;8.90;96.20
814;DHT22;389;48.710;9.392;2023-12-28T10:28:36;9.00;95.80
814;DHT22;389;48.710;9.392;2023-12-28T10:31:05;9.10;95.60
814;DHT22;389;48.710;9.392;2023-12-28T10:33:34;9.20;95.20
814;DHT22;389;48.710;9.392;2023-12-28T10:36:05;9.20;94.90
814;DHT22;389;48.710;9.392;2023-12-28T10:38:35;9.30;95.00
814;DHT22;389;48.710;9.392;2023-12-28T10:41:06;9.30;95.00
814;DHT22;389;48.710;9.392;2023-12-28T10:43:46;9.40;95.20
814;DHT22;389;48.710;9.392;2023-12-28T10:46:27;9.40;95.40
814;DHT22;389;48.710;9.392;2023-12-28T10:48:59;9.50;95.50
814;DHT22;389;48.710;9.392;2023-12-28T10:51:25;9.60;95.50
814;DHT22;389;48.710;9.392;2023-12-28T10:56:44;9.60;95.40
814;DHT22;389;48.710;9.392;2023-12-28T11:01:47;9.70;95.30
814;DHT22;389;48.710;9.392;2023-12-28T11:04:21;9.70;95.20
814;DHT22;389;48.710;9.392;2023-12-28T11:06:49;9.80;95.30
814;DHT22;389;48.710;9.392;2023-12-28T11:09:15;9.90;95.30
814;DHT22;389;48.710;9.392;2023-12-28T11:11:43;10.00;94.70
814;DHT22;389;48.710;9.392;2023-12-28T11:14:09;10.10;94.60
814;DHT22;389;48.710;9.392;2023-12-28T11:16:34;10.20;94.70
814;DHT22;389;48.710;9.392;2023-12-28T11:19:03;10.30;94.40
814;DHT22;389;48.710;9.392;2023-12-28T11:21:29;10.40;94.30
814;DHT22;389;48.710;9.392;2023-12-28T11:23:55;10.50;94.30
814;DHT22;389;48.710;9.392;2023-12-28T11:26:22;10.50;94.30
814;DHT22;389;48.710;9.392;2023-12-28T11:28:48;10.60;94.40
814;DHT22;389;48.710;9.392;2023-12-28T11:31:15;10.60;94.40
814;DHT22;389;48.710;9.392;2023-12-28T11:33:48;10.70;94.50
814;DHT22;389;48.710;9.392;2023-12-28T11:36:34;10.70;94.40
814;DHT22;389;48.710;9.392;2023-12-28T11:39:02;10.80;94.40
814;DHT22;389;48.710;9.392;2023-12-28T11:41:33;10.80;94.30
814;DHT22;389;48.710;9.392;2023-12-28T11:44:04;10.90;94.30
814;DHT22;389;48.710;9.392;2023-12-28T11:46:34;11.00;94.30
814;DHT22;389;48.710;9.392;2023-12-28T11:51:31;11.10;94.40
814;DHT22;389;48.710;9.392;2023-12-28T11:53:56;11.00;94.50
814;DHT22;389;48.710;9.392;2023-12-28T11:56:25;11.10;94.90
814;DHT22;389;48.710;9.392;2023-12-28T11:58:51;11.10;95.00
814;DHT22;389;48.710;9.392;2023-12-28T12:01:16;11.00;94.30
814;DHT22;389;48.710;9.392;2023-12-28T12:03:42;11.00;94.20
814;DHT22;389;48.710;9.392;2023-12-28T12:06:08;11.10;94.40
814;DHT22;389;48.710;9.392;2023-12-28T12:08:34;11.00;94.40
814;DHT22;389;48.710;9.392;2023-12-28T12:11:01;11.00;94.40
814;DHT22;389;48.710;9.392;2023-12-28T12:13:29;11.00;94.50
814;DHT22;389;48.710;9.392;2023-12-28T12:15:55;10.90;94.50
814;DHT22;389;48.710;9.392;2023-12-28T12:18:22;11.00;94.50
814;DHT22;389;48.710;9.392;2023-12-28T12:20:48;11.00;94.60
814;DHT22;389;48.710;9.392;2023-12-28T12:23:14;11.10;94.70
814;DHT22;389;48.710;9.392;2023-12-28T12:25:41;11.00;94.90
814;DHT22;389;48.710;9.392;2023-12-28T12:28:07;11.00;94.30
814;DHT22;389;48.710;9.392;2023-12-28T12:30:32;11.10;94.40
814;DHT22;389;48.710;9.392;2023-12-28T12:32:58;11.10;94.40
814;DHT22;389;48.710;9.392;2023-12-28T12:35:24;11.10;94.40
814;DHT22;389;48.710;9.392;2023-12-28T12:37:50;11.10;94.20
814;DHT22;389;48.710;9.392;2023-12-28T12:40:17;11.10;94.20
814;DHT22;389;48.710;9.392;2023-12-28T12:42:52;11.10;94.20
814;DHT22;389;48.710;9.392;2023-12-28T12:45:19;11.10;94.30
814;DHT22;389;48.710;9.392;2023-12-28T12:47:46;11.10;94.50
814;DHT22;389;48.710;9.392;2023-12-28T12:50:11;11.10;94.50
814;DHT22;389;48.710;9.392;2023-12-28T12:52:38;11.10;94.50
814;DHT22;389;48.710;9.392;2023-12-28T12:55:04;11.10;94.60
814;DHT22;389;48.710;9.392;2023-12-28T12:57:30;11.10;94.70
814;DHT22;389;48.710;9.392;2023-12-28T12:59:56;11.10;94.70
814;DHT22;389;48.710;9.392;2023-12-28T13:02:25;11.10;94.80
814;DHT22;389;48.710;9.392;2023-12-28T13:04:56;11.10;95.00
814;DHT22;389;48.710;9.392;2023-12-28T13:07:22;11.20;95.20
814;DHT22;389;48.710;9.392;2023-12-28T13:09:47;11.20;95.40
814;DHT22;389;48.710;9.392;2023-12-28T13:12:13;11.20;95.70
814;DHT22;389;48.710;9.392;2023-12-28T13:14:38;11.20;96.00
814;DHT22;389;48.710;9.392;2023-12-28T13:17:04;11.20;96.20
814;DHT22;389;48.710;9.392;2023-12-28T13:19:30;11.20;96.50
814;DHT22;389;48.710;9.392;2023-12-28T13:21:55;11.20;96.80
814;DHT22;389;48.710;9.392;2023-12-28T13:24:21;11.10;97.00
814;DHT22;389;48.710;9.392;2023-12-28T13:26:47;11.10;97.20
814;DHT22;389;48.710;9.392;2023-12-28T13:29:13;11.10;97.40
814;DHT22;389;48.710;9.392;2023-12-28T13:31:38;11.10;97.50
814;DHT22;389;48.710;9.392;2023-12-28T13:34:04;11.10;97.70
814;DHT22;389;48.710;9.392;2023-12-28T13:36:30;11.10;97.90
814;DHT22;389;48.710;9.392;2023-12-28T13:38:56;11.00;98.00
814;DHT22;389;48.710;9.392;2023-12-28T13:41:21;11.00;98.30
814;DHT22;389;48.710;9.392;2023-12-28T13:43:47;11.00;98.50
814;DHT22;389;48.710;9.392;2023-12-28T13:46:12;11.00;98.60
814;DHT22;389;48.710;9.392;2023-12-28T13:48:38;11.00;98.80
814;DHT22;389;48.710;9.392;2023-12-28T13:51:08;11.00;98.90
814;DHT22;389;48.710;9.392;2023-12-28T13:53:33;11.00;99.00
814;DHT22;389;48.710;9.392;2023-12-28T13:56:06;10.90;99.00
814;DHT22;389;48.710;9.392;2023-12-28T13:58:32;10.90;99.10
814;DHT22;389;48.710;9.392;2023-12-28T14:00:57;10.90;99.20
814;DHT22;389;48.710;9.392;2023-12-28T14:03:23;10.90;99.30
814;DHT22;389;48.710;9.392;2023-12-28T14:05:48;10.80;99.40
814;DHT22;389;48.710;9.392;2023-12-28T14:08:14;10.80;99.50
814;DHT22;389;48.710;9.392;2023-12-28T14:10:40;10.80;99.70
814;DHT22;389;48.710;9.392;2023-12-28T14:13:05;10.80;99.80
814;DHT22;389;48.710;9.392;2023-12-28T14:15:31;10.70;99.80
814;DHT22;389;48.710;9.392;2023-12-28T14:17:56;10.80;99.90
814;DHT22;389;48.710;9.392;2023-12-28T14:20:22;10.70;99.90
814;DHT22;389;48.710;9.392;2023-12-28T14:22:48;10.80;99.90
814;DHT22;389;48.710;9.392;2023-12-28T14:25:14;10.70;99.90
814;DHT22;389;48.710;9.392;2023-12-28T14:27:40;10.70;99.90
814;DHT22;389;48.710;9.392;2023-12-28T14:30:06;10.70;99.90
814;DHT22;389;48.710;9.392;2023-12-28T14:32:34;10.70;99.90
814;DHT22;389;48.710;9.392;2023-12-28T14:35:00;10.60;99.90
814;DHT22;389;48.710;9.392;2023-12-28T14:37:26;10.70;99.90
814;DHT22;389;48.710;9.392;2023-12-28T14:39:51;10.60;99.90
814;DHT22;389;48.710;9.392;2023-12-28T14:42:17;10.60;99.90
814;DHT22;389;48.710;9.392;2023-12-28T14:44:43;10.60;99.90
814;DHT22;389;48.710;9.392;2023-12-28T14:47:08;10.60;99.90
814;DHT22;389;48.710;9.392;2023-12-28T14:49:34;10.50;99.90
814;DHT22;389;48.710;9.392;2023-12-28T14:51:59;10.50;99.90
814;DHT22;389;48.710;9.392;2023-12-28T14:54:25;10.50;99.90
814;DHT22;389;48.710;9.392;2023-12-28T14:56:50;10.50;99.90
814;DHT22;389;48.710;9.392;2023-12-28T14:59:16;10.50;99.90
814;DHT22;389;48.710;9.392;2023-12-28T15:01:41;10.50;99.90
814;DHT22;389;48.710;9.392;2023-12-28T15:04:07;10.50;99.90
814;DHT22;389;48.710;9.392;2023-12-28T15:06:33;10.50;99.90
814;DHT22;389;48.710;9.392;2023-12-28T15:08:58;10.40;99.90
814;DHT22;389;48.710;9.392;2023-12-28T15:11:24;10.40;99.90
814;DHT22;389;48.710;9.392;2023-12-28T15:13:50;10.40;99.90
814;DHT22;389;48.710;9.392;2023-12-28T15:16:15;10.40;99.90
814;DHT22;389;48.710;9.392;2023-12-28T15:18:41;10.30;99.90
814;DHT22;389;48.710;9.392;2023-12-28T15:21:07;10.30;99.90
814;DHT22;389;48.710;9.392;2023-12-28T15:23:33;10.30;99.90
814;DHT22;389;48.710;9.392;2023-12-28T15:25:59;10.30;99.90
814;DHT22;389;48.710;9.392;2023-12-28T15:28:24;10.30;99.90
814;DHT22;389;48.710;9.392;2023-12-28T15:30:50;10.30;99.90
814;DHT22;389;48.710;9.392;2023-12-28T15:33:16;10.30;99.90
814;DHT22;389;48.710;9.392;2023-12-28T15:35:41;10.30;99.90
814;DHT22;389;48.710;9.392;2023-12-28T15:38:07;10.20;99.90
814;DHT22;389;48.710;9.392;2023-12-28T15:40:32;10.20;99.90
814;DHT22;389;48.710;9.392;2023-12-28T15:42:58;10.10;99.90
814;DHT22;389;48.710;9.392;2023-12-28T15:45:24;10.10;99.90
814;DHT22;389;48.710;9.392;2023-12-28T15:47:50;10.10;99.90
814;DHT22;389;48.710;9.392;2023-12-28T15:50:16;10.10;99.90
814;DHT22;389;48.710;9.392;2023-12-28T15:52:41;10.10;99.90
814;DHT22;389;48.710;9.392;2023-12-28T15:55:07;10.10;99.90
814;DHT22;389;48.710;9.392;2023-12-28T15:57:33;10.10;99.90
814;DHT22;389;48.710;9.392;2023-12-28T15:59:58;10.00;99.90
814;DHT22;389;48.710;9.392;2023-12-28T16:02:27;10.00;99.90
814;DHT22;389;48.710;9.392;2023-12-28T16:04:54;10.00;99.90
814;DHT22;389;48.710;9.392;2023-12-28T16:07:21;10.00;99.90
814;DHT22;389;48.710;9.392;2023-12-28T16:09:47;10.00;99.90
814;DHT22;389;48.710;9.392;2023-12-28T16:12:12;10.00;99.90
814;DHT22;389;48.710;9.392;2023-12-28T16:14:38;10.00;99.90
814;DHT22;389;48.710;9.392;2023-12-28T16:17:04;10.00;99.90
814;DHT22;389;48.710;9.392;2023-12-28T16:19:30;9.90;99.90
814;DHT22;389;48.710;9.392;2023-12-28T16:21:57;9.90;99.90
814;DHT22;389;48.710;9.392;2023-12-28T16:24:23;9.90;99.90
814;DHT22;389;48.710;9.392;2023-12-28T16:26:49;9.90;99.90
814;DHT22;389;48.710;9.392;2023-12-28T16:29:14;9.90;99.90
814;DHT22;389;48.710;9.392;2023-12-28T16:31:40;9.90;99.90
814;DHT22;389;48.710;9.392;2023-12-28T16:34:05;9.90;99.90
814;DHT22;389;48.710;9.392;2023-12-28T16:36:32;9.90;99.90
814;DHT22;389;48.710;9.392;2023-12-28T16:38:57;9.90;99.90
814;DHT22;389;48.710;9.392;2023-12-28T16:41:23;9.90;99.90
814;DHT22;389;48.710;9.392;2023-12-28T16:43:51;9.90;99.90
814;DHT22;389;48.710;9.392;2023-12-28T16:46:17;9.80;99.90
814;DHT22;389;48.710;9.392;2023-12-28T16:48:43;9.80;99.90